Time;durP1;ratioP1;P1;durP2;ratioP2;P2;SDS_P1;SDS_P2;PMS_P1;PMS_P2;Temp;Humidity;BMP_temperature;BMP_pressure;BME280_temperature;BME280_humidity;BME280_pressure;Samples;Min_cycle;Max_cycle;Signal;HPM_P1;HPM_P2
2022/11/24 00:01:17;;;;;;;4.73;2.40;;;9.70;99.90;;;;;;5014332;28;20444;-74
2022/11/24 00:03:45;;;;;;;4.40;2.80;;;9.70;99.90;;;;;;4993745;28;20406;-74
2022/11/24 00:06:15;;;;;;;7.87;2.90;;;9.70;99.90;;;;;;5017966;28;20452;-74
2022/11/24 00:08:44;;;;;;;5.17;2.60;;;9.70;99.90;;;;;;4996664;28;20998;-74
2022/11/24 00:11:12;;;;;;;4.73;2.33;;;9.70;99.90;;;;;;4993136;28;20853;-75
2022/11/24 00:13:39;;;;;;;4.00;2.20;;;9.80;99.90;;;;;;5026166;28;20892;-73
2022/11/24 00:16:10;;;;;;;5.40;2.93;;;9.80;99.90;;;;;;4996410;28;20463;-73
2022/11/24 00:18:36;;;;;;;4.87;2.50;;;9.80;99.90;;;;;;5012613;28;20401;-72
2022/11/24 00:21:07;;;;;;;5.20;2.87;;;9.70;99.90;;;;;;5013958;28;20448;-73
2022/11/24 00:23:37;;;;;;;4.50;2.30;;;9.80;99.90;;;;;;4996825;28;20420;-74
2022/11/24 00:26:14;;;;;;;4.47;2.70;;;9.80;99.90;;;;;;5014056;28;21018;-74
2022/11/24 00:28:41;;;;;;;7.80;3.07;;;9.70;99.90;;;;;;4996255;28;20967;-74
2022/11/24 00:31:19;;;;;;;4.63;2.30;;;9.70;99.90;;;;;;5012515;28;20886;-74
2022/11/24 00:33:47;;;;;;;5.30;2.70;;;9.70;99.90;;;;;;4996292;28;20456;-74
2022/11/24 00:36:13;;;;;;;3.97;2.40;;;9.70;99.90;;;;;;4996661;28;20511;-74
2022/11/24 00:38:39;;;;;;;8.90;2.40;;;9.70;99.90;;;;;;5012289;28;20976;-74
2022/11/24 00:41:05;;;;;;;4.23;2.90;;;9.70;99.90;;;;;;5012346;28;20440;-74
2022/11/24 00:43:34;;;;;;;6.13;2.53;;;9.70;99.90;;;;;;5013829;28;20420;-73
2022/11/24 00:46:00;;;;;;;6.00;2.70;;;9.70;99.90;;;;;;5011675;28;20476;-74
2022/11/24 00:48:26;;;;;;;6.63;2.60;;;9.70;99.90;;;;;;5013518;28;20169;-74
2022/11/24 00:51:00;;;;;;;4.03;2.90;;;9.70;99.90;;;;;;5012090;28;21002;-74
2022/11/24 00:53:29;;;;;;;9.20;2.43;;;9.70;99.90;;;;;;4996010;28;20510;-74
2022/11/24 00:55:55;;;;;;;4.43;3.30;;;9.70;99.90;;;;;;4995925;28;20919;-74
2022/11/24 00:58:23;;;;;;;4.93;2.27;;;9.70;99.90;;;;;;5011828;28;20420;-74
2022/11/24 01:00:52;;;;;;;4.67;2.47;;;9.70;99.90;;;;;;4995713;28;21033;-74
2022/11/24 01:03:19;;;;;;;4.10;3.17;;;9.70;99.90;;;;;;5012115;28;20467;-74
2022/11/24 01:05:46;;;;;;;7.93;2.60;;;9.70;99.90;;;;;;5007144;28;20584;-74
2022/11/24 01:08:12;;;;;;;5.97;2.53;;;9.70;99.90;;;;;;5012138;28;20392;-74
2022/11/24 01:10:40;;;;;;;6.87;2.53;;;9.70;99.90;;;;;;4995334;28;20460;-74
2022/11/24 01:13:08;;;;;;;4.50;2.93;;;9.70;99.90;;;;;;5011351;28;20567;-74
2022/11/24 01:15:36;;;;;;;7.33;2.33;;;9.70;99.90;;;;;;5011793;28;20409;-74
2022/11/24 01:18:07;;;;;;;7.20;2.63;;;9.70;99.90;;;;;;5012062;28;20460;-74
2022/11/24 01:20:38;;;;;;;3.13;2.37;;;9.70;99.90;;;;;;5011703;28;20455;-74
2022/11/24 01:23:06;;;;;;;4.03;2.37;;;9.60;99.90;;;;;;5011395;28;20421;-74
2022/11/24 01:25:38;;;;;;;5.60;2.60;;;9.70;99.90;;;;;;5011821;28;20510;-74
2022/11/24 01:28:04;;;;;;;7.30;3.27;;;9.70;99.90;;;;;;5010690;28;20456;-74
2022/11/24 01:30:30;;;;;;;5.67;2.87;;;9.70;99.90;;;;;;5012635;28;20444;-74
2022/11/24 01:32:59;;;;;;;6.23;2.33;;;9.70;99.90;;;;;;5012083;28;20276;-74
2022/11/24 01:35:25;;;;;;;9.20;2.63;;;9.60;99.90;;;;;;5011734;28;20436;-74
2022/11/24 01:37:53;;;;;;;5.80;3.13;;;9.70;99.90;;;;;;5011028;28;20185;-74
2022/11/24 01:40:26;;;;;;;6.43;2.50;;;9.60;99.90;;;;;;4995226;28;20256;-74
2022/11/24 01:42:54;;;;;;;3.90;2.10;;;9.60;99.90;;;;;;5011315;28;20478;-74
2022/11/24 01:45:39;;;;;;;3.93;2.10;;;9.60;99.90;;;;;;4991097;28;20467;-74
2022/11/24 01:48:19;;;;;;;6.40;2.50;;;9.60;99.90;;;;;;5007972;28;20930;-74
2022/11/24 01:50:52;;;;;;;4.10;2.50;;;9.60;99.90;;;;;;5024357;28;20449;-74
2022/11/24 01:53:20;;;;;;;7.20;2.73;;;9.60;99.90;;;;;;5008309;28;20410;-74
2022/11/24 01:55:50;;;;;;;4.60;2.40;;;9.60;99.90;;;;;;5027465;28;20501;-74
2022/11/24 01:58:24;;;;;;;7.93;2.97;;;9.60;99.90;;;;;;5011287;28;20407;-74
2022/11/24 02:00:51;;;;;;;5.73;2.53;;;9.60;99.90;;;;;;4994373;28;20447;-74
2022/11/24 02:03:24;;;;;;;6.17;2.63;;;9.60;99.90;;;;;;4993473;28;20504;-74
2022/11/24 02:06:01;;;;;;;8.57;2.60;;;9.60;99.90;;;;;;5012165;28;20444;-74
2022/11/24 02:08:45;;;;;;;5.93;3.03;;;9.60;99.90;;;;;;5012194;28;20947;-73
2022/11/24 02:11:10;;;;;;;4.00;2.40;;;9.60;99.90;;;;;;4993740;28;21690;-73
2022/11/24 02:13:38;;;;;;;4.63;2.23;;;9.60;99.90;;;;;;5010997;28;20444;-74
2022/11/24 02:16:07;;;;;;;5.20;2.27;;;9.60;99.90;;;;;;5010946;28;20409;-74
2022/11/24 02:18:35;;;;;;;10.27;2.50;;;9.60;99.90;;;;;;5008164;28;20912;-74
2022/11/24 02:21:01;;;;;;;7.40;2.23;;;9.60;99.90;;;;;;4992520;28;20460;-74
2022/11/24 02:23:50;;;;;;;4.20;2.33;;;9.60;99.90;;;;;;4994069;28;20464;-74
2022/11/24 02:26:51;;;;;;;4.83;2.40;;;9.60;99.90;;;;;;5012370;28;20458;-74
2022/11/24 02:29:19;;;;;;;5.83;2.43;;;9.60;99.90;;;;;;5007323;28;20805;-74
2022/11/24 02:31:49;;;;;;;5.30;2.50;;;9.60;99.90;;;;;;5011833;28;20490;-73
2022/11/24 02:34:18;;;;;;;6.73;2.43;;;9.60;99.90;;;;;;5027197;28;20444;-74
2022/11/24 02:36:47;;;;;;;5.70;2.53;;;9.60;99.90;;;;;;5011941;28;20427;-74
2022/11/24 02:39:16;;;;;;;4.40;2.20;;;9.60;99.90;;;;;;5012924;28;20869;-74
2022/11/24 02:42:02;;;;;;;5.93;2.50;;;9.60;99.90;;;;;;4997729;28;20953;-74
2022/11/24 02:44:33;;;;;;;5.10;2.47;;;9.60;99.90;;;;;;5015477;28;20789;-74
2022/11/24 02:47:05;;;;;;;9.13;2.77;;;9.60;99.90;;;;;;5009292;28;20472;-74
2022/11/24 02:49:31;;;;;;;5.53;2.73;;;9.60;99.90;;;;;;4994910;28;20425;-74
2022/11/24 02:52:00;;;;;;;9.67;2.53;;;9.60;99.90;;;;;;5008933;28;20836;-74
2022/11/24 02:54:26;;;;;;;4.97;2.33;;;9.50;99.90;;;;;;5014263;28;20818;-74
2022/11/24 02:56:54;;;;;;;5.87;2.10;;;9.60;99.90;;;;;;5015846;28;20427;-74
2022/11/24 02:59:20;;;;;;;3.57;1.87;;;9.60;99.90;;;;;;5014018;28;20478;-74
2022/11/24 03:01:51;;;;;;;4.27;2.27;;;9.60;99.90;;;;;;4998414;28;20436;-74
2022/11/24 03:04:20;;;;;;;4.27;2.27;;;9.50;99.90;;;;;;5015507;28;20420;-74
2022/11/24 03:06:48;;;;;;;3.30;2.00;;;9.60;99.90;;;;;;5015474;28;20468;-74
2022/11/24 03:09:15;;;;;;;7.43;2.97;;;9.60;99.90;;;;;;5013975;28;20431;-74
2022/11/24 03:11:41;;;;;;;5.03;2.20;;;9.60;99.90;;;;;;5013909;28;20967;-74
2022/11/24 03:14:07;;;;;;;5.17;3.00;;;9.50;99.90;;;;;;5014049;28;20509;-74
2022/11/24 03:16:33;;;;;;;7.80;2.17;;;9.60;99.90;;;;;;4997290;28;20446;-74
2022/11/24 03:19:02;;;;;;;4.63;2.33;;;9.60;99.90;;;;;;5014207;28;20417;-74
2022/11/24 03:21:28;;;;;;;5.33;2.13;;;9.60;99.90;;;;;;5015063;28;20455;-74
2022/11/24 03:23:54;;;;;;;3.67;1.90;;;9.60;99.90;;;;;;5014879;28;20439;-74
2022/11/24 03:26:22;;;;;;;4.50;2.20;;;9.60;99.90;;;;;;5013556;28;20471;-74
2022/11/24 03:28:49;;;;;;;5.77;2.07;;;9.60;99.90;;;;;;5013919;28;20527;-74
2022/11/24 03:31:17;;;;;;;3.97;2.20;;;9.60;99.90;;;;;;4997390;28;20455;-73
2022/11/24 03:33:45;;;;;;;5.50;2.23;;;9.50;99.90;;;;;;5013713;28;20423;-74
2022/11/24 03:36:14;;;;;;;7.30;2.70;;;9.60;99.90;;;;;;5013921;28;20816;-74
2022/11/24 03:38:40;;;;;;;5.00;2.20;;;9.60;99.90;;;;;;4981075;28;20598;-74
2022/11/24 03:41:06;;;;;;;5.73;1.83;;;9.50;99.90;;;;;;4997209;28;20456;-74
2022/11/24 03:43:31;;;;;;;6.50;2.70;;;9.60;99.90;;;;;;5013618;28;20485;-74
2022/11/24 03:45:57;;;;;;;3.57;2.03;;;9.50;99.90;;;;;;5013438;28;20198;-74
2022/11/24 03:48:23;;;;;;;6.10;2.30;;;9.60;99.90;;;;;;5013667;28;20393;-74
2022/11/24 03:50:55;;;;;;;5.30;2.73;;;9.60;99.90;;;;;;4994456;28;20452;-74
2022/11/24 03:53:21;;;;;;;4.50;2.23;;;9.60;99.90;;;;;;5013298;28;20796;-74
2022/11/24 03:55:52;;;;;;;5.93;2.43;;;9.50;99.90;;;;;;5013481;28;20424;-74
2022/11/24 03:58:21;;;;;;;5.50;2.43;;;9.50;99.90;;;;;;5013424;28;20420;-74
2022/11/24 04:00:53;;;;;;;9.80;2.50;;;9.50;99.90;;;;;;5013391;28;20518;-74
2022/11/24 04:03:19;;;;;;;5.03;2.13;;;9.60;99.90;;;;;;4996710;28;20424;-73
2022/11/24 04:05:45;;;;;;;8.10;2.77;;;9.50;99.90;;;;;;5012858;28;20936;-73
2022/11/24 04:08:12;;;;;;;4.23;1.97;;;9.50;99.90;;;;;;5012825;28;20483;-74
2022/11/24 04:10:38;;;;;;;4.63;1.87;;;9.50;99.90;;;;;;5013137;28;20471;-74
2022/11/24 04:13:14;;;;;;;5.47;2.63;;;9.60;99.90;;;;;;5013086;28;20455;-74
2022/11/24 04:15:41;;;;;;;7.67;2.63;;;9.50;99.90;;;;;;4996887;28;20493;-74
2022/11/24 04:18:11;;;;;;;4.87;1.70;;;9.60;99.90;;;;;;5013611;28;20409;-74
2022/11/24 04:20:39;;;;;;;5.53;2.23;;;9.50;99.90;;;;;;4987223;28;20608;-74
2022/11/24 04:23:06;;;;;;;5.03;2.40;;;9.60;99.90;;;;;;5013238;28;20754;-74
2022/11/24 04:25:35;;;;;;;4.43;2.20;;;9.50;99.90;;;;;;5011230;28;20770;-74
2022/11/24 04:28:01;;;;;;;8.43;2.40;;;9.60;99.90;;;;;;4996159;28;20464;-74
2022/11/24 04:30:27;;;;;;;7.23;2.63;;;9.60;99.90;;;;;;5012628;28;20428;-74
2022/11/24 04:32:54;;;;;;;5.80;2.50;;;9.60;99.90;;;;;;5012648;28;20865;-74
2022/11/24 04:35:20;;;;;;;11.03;2.57;;;9.50;99.90;;;;;;5013960;28;20436;-74
2022/11/24 04:37:46;;;;;;;4.40;1.70;;;9.50;99.90;;;;;;5012446;28;20546;-74
2022/11/24 04:40:12;;;;;;;7.37;2.63;;;9.50;99.90;;;;;;5012304;28;20452;-74
2022/11/24 04:42:38;;;;;;;9.50;2.40;;;9.50;99.90;;;;;;5012457;28;20440;-74
2022/11/24 04:45:06;;;;;;;10.60;2.23;;;9.50;99.90;;;;;;5044273;22;21037;-95
2022/11/24 04:47:37;;;;;;;5.40;2.80;;;9.60;99.90;;;;;;5041114;28;20826;-94
2022/11/24 04:50:11;;;;;;;10.70;2.93;;;9.60;99.90;;;;;;5041089;28;20940;-94
2022/11/24 04:52:39;;;;;;;9.80;2.30;;;9.60;99.90;;;;;;5057425;28;20435;-94
2022/11/24 04:55:05;;;;;;;7.57;2.47;;;9.50;99.90;;;;;;5057733;28;20446;-95
2022/11/24 04:57:36;;;;;;;6.20;2.60;;;9.50;99.90;;;;;;5024957;28;20508;-95
2022/11/24 05:00:11;;;;;;;7.97;2.70;;;9.50;99.90;;;;;;5058014;28;20426;-95
2022/11/24 05:02:42;;;;;;;6.87;2.57;;;9.50;99.90;;;;;;5024785;28;20450;-95
2022/11/24 05:05:11;;;;;;;8.13;2.60;;;9.60;99.90;;;;;;5057662;28;20434;-94
2022/11/24 05:07:46;;;;;;;10.23;2.80;;;9.50;99.90;;;;;;5040561;28;20534;-95
2022/11/24 05:10:38;;;;;;;6.87;2.60;;;9.60;99.90;;;;;;5037478;28;20518;-95
2022/11/24 05:13:12;;;;;;;7.07;2.50;;;9.50;99.90;;;;;;5040267;28;20427;-95
2022/11/24 05:15:43;;;;;;;8.07;3.50;;;9.60;99.90;;;;;;5057678;28;20493;-96
2022/11/24 05:18:15;;;;;;;6.57;2.30;;;9.50;99.90;;;;;;5042038;28;20450;-95
2022/11/24 05:20:43;;;;;;;9.23;2.60;;;9.50;99.90;;;;;;5023442;28;20454;-95
2022/11/24 05:23:11;;;;;;;8.57;2.80;;;9.60;99.90;;;;;;5023233;28;20411;-95
2022/11/24 05:25:37;;;;;;;7.60;2.50;;;9.60;99.90;;;;;;5023120;28;20449;-94
2022/11/24 05:28:05;;;;;;;12.50;3.63;;;9.60;99.90;;;;;;5039727;28;20426;-93
2022/11/24 05:30:31;;;;;;;8.67;2.93;;;9.60;99.90;;;;;;5023181;28;20905;-94
2022/11/24 05:32:57;;;;;;;8.53;2.70;;;9.60;99.90;;;;;;5039421;28;20909;-95
2022/11/24 05:35:23;;;;;;;6.37;2.13;;;9.60;99.90;;;;;;5023350;28;20419;-94
2022/11/24 05:37:49;;;;;;;6.37;2.47;;;9.60;99.90;;;;;;5039270;28;20526;-94
2022/11/24 05:40:16;;;;;;;10.10;2.70;;;9.60;99.90;;;;;;5022838;28;20806;-92
2022/11/24 05:42:42;;;;;;;6.50;2.70;;;9.60;99.90;;;;;;5039174;28;20427;-94
2022/11/24 05:45:12;;;;;;;4.13;2.10;;;9.60;99.90;;;;;;5056376;28;20520;-95
2022/11/24 05:47:39;;;;;;;8.90;2.63;;;9.60;99.90;;;;;;5022622;28;20528;-94
2022/11/24 05:50:07;;;;;;;7.13;2.10;;;9.60;99.90;;;;;;5039086;28;20442;-95
2022/11/24 05:52:34;;;;;;;6.67;2.67;;;9.60;99.90;;;;;;5039392;28;20497;-95
2022/11/24 05:55:00;;;;;;;5.70;2.40;;;9.60;99.90;;;;;;5039397;28;20494;-95
2022/11/24 05:57:26;;;;;;;4.00;2.43;;;9.60;99.90;;;;;;5038998;28;20463;-95
2022/11/24 05:59:52;;;;;;;8.70;3.10;;;9.60;99.90;;;;;;5055488;28;20435;-96
2022/11/24 06:02:18;;;;;;;7.27;2.63;;;9.60;99.90;;;;;;5038943;28;20487;-95
2022/11/24 06:04:44;;;;;;;9.03;2.67;;;9.60;99.90;;;;;;5038843;28;20527;-95
2022/11/24 06:07:11;;;;;;;10.80;3.10;;;9.60;99.90;;;;;;5038872;28;20477;-94
2022/11/24 06:09:38;;;;;;;7.50;2.93;;;9.60;99.90;;;;;;5038852;28;20486;-95
2022/11/24 06:12:09;;;;;;;5.67;2.50;;;9.70;99.90;;;;;;5022246;28;20743;-94
2022/11/24 06:14:36;;;;;;;10.87;2.57;;;9.70;99.90;;;;;;5018905;28;20445;-94
2022/11/24 06:17:03;;;;;;;9.23;2.57;;;9.70;99.90;;;;;;5019469;28;20427;-94
2022/11/24 06:19:29;;;;;;;16.57;3.17;;;9.60;99.90;;;;;;5035502;28;20430;-95
2022/11/24 06:21:55;;;;;;;13.27;2.63;;;9.70;99.90;;;;;;5036130;28;20431;-90
2022/11/24 06:24:21;;;;;;;9.53;4.27;;;9.70;99.90;;;;;;5018889;28;20438;-94
2022/11/24 06:26:50;;;;;;;5.93;2.73;;;9.70;99.90;;;;;;5035216;28;20547;-95
2022/11/24 06:29:16;;;;;;;4.90;2.47;;;9.70;99.90;;;;;;5018814;28;20728;-94
2022/11/24 06:31:44;;;;;;;8.50;2.87;;;9.70;99.90;;;;;;5035827;28;20423;-95
2022/11/24 06:34:12;;;;;;;7.10;2.70;;;9.70;99.90;;;;;;5035558;28;20426;-96
2022/11/24 06:36:38;;;;;;;6.90;2.70;;;9.70;99.90;;;;;;5035499;28;20510;-92
2022/11/24 06:39:10;;;;;;;9.40;3.03;;;9.70;99.90;;;;;;5040194;28;21013;-96
2022/11/24 06:41:35;;;;;;;9.23;2.80;;;9.60;99.90;;;;;;5039129;28;20490;-94
2022/11/24 06:44:03;;;;;;;11.50;3.03;;;9.70;99.90;;;;;;5054975;28;20446;-94
2022/11/24 06:46:30;;;;;;;6.13;2.70;;;9.60;99.90;;;;;;5038738;28;20446;-95
2022/11/24 06:49:01;;;;;;;6.10;2.30;;;9.60;99.90;;;;;;5040056;28;20492;-93
2022/11/24 06:51:27;;;;;;;11.20;3.30;;;9.70;99.90;;;;;;5039022;28;20814;-95
2022/11/24 06:53:56;;;;;;;8.83;3.60;;;9.70;99.90;;;;;;5039331;28;20434;-94
2022/11/24 06:56:22;;;;;;;10.60;3.30;;;9.70;99.90;;;;;;5038487;28;20514;-93
2022/11/24 06:58:50;;;;;;;6.90;2.30;;;9.70;99.90;;;;;;5038718;28;20434;-95
2022/11/24 07:01:23;;;;;;;12.13;2.50;;;9.70;99.90;;;;;;5038689;28;20466;-94
2022/11/24 07:03:50;;;;;;;13.53;2.70;;;9.60;99.90;;;;;;5039277;28;20518;-94
2022/11/24 07:06:35;;;;;;;7.73;2.70;;;9.70;99.90;;;;;;5051702;28;20489;-95
2022/11/24 07:09:01;;;;;;;11.10;2.90;;;9.60;99.90;;;;;;5054791;28;20754;-94
2022/11/24 07:11:27;;;;;;;5.37;2.40;;;9.60;99.90;;;;;;5038475;28;20429;-94
2022/11/24 07:13:53;;;;;;;7.50;2.53;;;9.60;99.90;;;;;;5034979;28;20526;-94
2022/11/24 07:16:24;;;;;;;6.63;2.63;;;9.60;99.90;;;;;;5035734;28;20446;-93
2022/11/24 07:18:51;;;;;;;6.10;2.30;;;9.60;99.90;;;;;;5002601;28;20427;-94
2022/11/24 07:21:19;;;;;;;12.73;3.30;;;9.60;99.90;;;;;;5037960;28;20446;-94
2022/11/24 07:23:52;;;;;;;8.20;2.90;;;9.60;99.90;;;;;;5072282;28;20422;-96
2022/11/24 07:26:22;;;;;;;20.03;3.40;;;9.60;99.90;;;;;;5057564;28;20550;-96
2022/11/24 07:28:48;;;;;;;6.37;2.20;;;9.60;99.90;;;;;;5058769;28;20442;-92
2022/11/24 07:31:23;;;;;;;8.03;2.60;;;9.60;99.90;;;;;;5059697;28;20940;-93
2022/11/24 07:41:35;;;;;;;4.07;2.00;;;9.60;99.90;;;;;;4982091;28;20456;-94
2022/11/24 07:44:03;;;;;;;4.67;2.17;;;9.60;99.90;;;;;;4981999;28;20425;-95
2022/11/24 07:46:29;;;;;;;3.03;1.73;;;9.60;99.90;;;;;;4981678;28;20473;-93
2022/11/24 07:58:54;;;;;;;6.87;1.93;;;9.60;99.90;;;;;;4966768;28;20458;-96
2022/11/24 08:05:34;;;;;;;1.77;1.50;;;9.60;99.90;;;;;;4902515;29;20588;-95
2022/11/24 08:07:59;;;;;;;3.50;1.30;;;9.60;99.90;;;;;;4870310;29;20502;-95
2022/11/24 08:10:26;;;;;;;5.77;1.70;;;9.60;99.90;;;;;;4901719;29;20432;-94
2022/11/24 08:12:52;;;;;;;4.00;1.67;;;9.60;99.90;;;;;;4899194;29;20429;-94
2022/11/24 08:15:18;;;;;;;3.17;1.40;;;9.60;99.90;;;;;;4852797;29;20816;-94
2022/11/24 08:18:49;;;;;;;2.60;1.20;;;9.60;99.90;;;;;;4882429;29;20826;-95
2022/11/24 08:25:36;;;;;;;3.00;1.30;;;9.60;99.90;;;;;;4942230;29;20443;-95
2022/11/24 08:28:29;;;;;;;1.93;1.27;;;9.60;99.90;;;;;;4890972;29;20552;-95
2022/11/24 08:31:21;;;;;;;3.20;1.30;;;9.60;99.90;;;;;;4908809;29;20500;-95
2022/11/24 08:33:56;;;;;;;2.27;1.30;;;9.70;99.90;;;;;;4942683;28;20433;-93
2022/11/24 08:46:01;;;;;;;;;;;;;;;;;;;;;
2022/11/24 08:56:32;;;;;;;3.97;1.70;;;9.60;99.90;;;;;;4868216;29;20439;-95
2022/11/24 09:00:21;;;;;;;;;;;;;;;;;;;;;
2022/11/24 09:07:19;;;;;;;2.40;1.37;;;9.60;99.90;;;;;;4865841;29;20564;-95
2022/11/24 09:09:45;;;;;;;2.67;1.57;;;9.70;99.90;;;;;;4863031;29;20423;-94
2022/11/24 09:12:25;;;;;;;;;;;;;;;;;;;;;
2022/11/24 09:24:06;;;;;;;3.80;1.50;;;9.70;99.90;;;;;;4839561;29;20451;-94
2022/11/24 09:26:35;;;;;;;6.13;1.90;;;9.70;99.90;;;;;;4845304;29;20495;-93
2022/11/24 09:29:03;;;;;;;7.63;1.90;;;9.70;99.90;;;;;;4940543;28;20453;-94
2022/11/24 09:31:34;;;;;;;9.60;1.60;;;9.70;99.90;;;;;;4963900;28;20512;-95
2022/11/24 09:34:12;;;;;;;2.53;1.40;;;9.70;99.90;;;;;;4952421;28;20449;-95
2022/11/24 09:37:07;;;;;;;3.30;1.43;;;9.70;99.90;;;;;;4970053;28;20542;-95
2022/11/24 09:40:04;;;;;;;7.00;1.93;;;9.70;99.90;;;;;;4992031;28;20458;-93
2022/11/24 09:42:52;;;;;;;4.20;1.50;;;9.70;99.90;;;;;;5008061;28;20447;-93
2022/11/24 09:45:47;;;;;;;6.63;1.83;;;9.70;99.90;;;;;;5056113;28;20752;-95
2022/11/24 09:48:25;;;;;;;5.40;1.60;;;9.80;99.90;;;;;;5011662;28;20487;-94
2022/11/24 09:50:52;;;;;;;8.33;2.07;;;9.70;99.90;;;;;;5025699;28;20508;-93
2022/11/24 09:53:56;;;;;;;8.00;1.73;;;9.80;99.90;;;;;;5025761;28;20423;-95
2022/11/24 09:56:26;;;;;;;6.27;2.27;;;9.80;99.90;;;;;;5021411;28;20437;-93
2022/11/24 09:59:16;;;;;;;9.03;2.07;;;9.80;99.90;;;;;;5039406;28;20399;-91
2022/11/24 10:02:35;;;;;;;4.83;1.70;;;9.80;99.90;;;;;;5041812;28;20458;-94
2022/11/24 10:05:01;;;;;;;4.50;2.10;;;9.80;99.90;;;;;;5040438;28;20484;-93
2022/11/24 10:07:41;;;;;;;7.50;2.63;;;9.80;99.90;;;;;;5022126;28;20474;-93
2022/11/24 10:11:07;;;;;;;7.03;2.00;;;9.80;99.90;;;;;;5022436;28;20437;-95
2022/11/24 10:27:12;;;;;;;3.27;2.13;;;9.80;99.90;;;;;;4902721;29;21260;-95
2022/11/24 10:29:50;;;;;;;4.57;2.40;;;9.80;99.90;;;;;;4901251;29;20408;-94
2022/11/24 10:32:24;;;;;;;3.50;1.83;;;9.80;99.90;;;;;;4900244;29;20492;-94
2022/11/24 10:35:21;;;;;;;6.23;1.77;;;9.80;99.90;;;;;;4904412;29;20549;-96
2022/11/24 10:38:05;;;;;;;5.00;1.90;;;9.80;99.90;;;;;;4872005;29;20529;-96
2022/11/24 10:40:38;;;;;;;5.60;1.80;;;9.90;99.90;;;;;;4899242;29;20490;-94
2022/11/24 10:43:09;;;;;;;3.37;1.67;;;9.90;99.90;;;;;;4899321;29;20429;-93
2022/11/24 10:45:38;;;;;;;6.67;2.00;;;9.90;99.90;;;;;;4898698;29;20445;-94
2022/11/24 10:53:13;;;;;;;;;;;;;;;;;;;;;
2022/11/24 10:56:40;;;;;;;9.60;3.07;;;9.90;99.90;;;;;;4872471;29;20449;-94
2022/11/24 10:59:29;;;;;;;5.90;2.20;;;9.90;99.90;;;;;;4919568;29;20589;-94
2022/11/24 11:01:58;;;;;;;9.30;2.53;;;9.90;99.90;;;;;;4951821;29;20802;-94
2022/11/24 11:04:32;;;;;;;5.90;2.77;;;9.90;99.90;;;;;;4912927;29;20471;-94
2022/11/24 11:07:34;;;;;;;10.30;2.33;;;10.00;99.90;;;;;;4914544;29;20805;-94
2022/11/24 11:10:36;;;;;;;7.83;2.17;;;10.00;99.90;;;;;;4903100;29;20529;-93
2022/11/24 11:13:26;;;;;;;7.40;2.30;;;10.00;99.90;;;;;;4868274;29;20434;-95
2022/11/24 11:15:54;;;;;;;7.80;2.00;;;10.00;99.90;;;;;;4916752;29;20446;-93
2022/11/24 11:52:27;;;;;;;6.80;2.53;;;10.00;99.90;;;;;;4960413;28;20440;-90
2022/11/24 12:08:07;;;;;;;6.07;2.17;;;10.00;99.90;;;;;;5073388;28;20477;-75
2022/11/24 12:11:08;;;;;;;5.60;2.27;;;10.00;99.90;;;;;;5064535;28;20572;-75
2022/11/24 12:13:55;;;;;;;12.07;2.50;;;10.10;99.90;;;;;;5074746;28;20405;-75
2022/11/24 12:17:05;;;;;;;5.40;2.47;;;10.00;99.90;;;;;;5056795;28;20436;-75
2022/11/24 12:19:34;;;;;;;9.10;2.23;;;10.10;99.90;;;;;;5056706;28;20458;-75
2022/11/24 12:22:30;;;;;;;11.80;2.43;;;10.10;99.90;;;;;;5056519;28;20421;-74
2022/11/24 12:25:18;;;;;;;9.40;2.40;;;10.10;99.90;;;;;;5039763;28;20525;-74
2022/11/24 12:28:23;;;;;;;7.70;2.00;;;10.10;99.90;;;;;;5073554;28;20560;-74
2022/11/24 12:31:05;;;;;;;7.83;2.70;;;10.10;99.90;;;;;;5041650;28;20462;-75
2022/11/24 12:33:52;;;;;;;12.10;2.33;;;10.10;99.90;;;;;;5056331;28;20446;-75
2022/11/24 12:36:49;;;;;;;8.23;2.83;;;10.20;99.90;;;;;;5073373;28;20426;-74
2022/11/24 12:39:33;;;;;;;11.37;2.90;;;10.20;99.90;;;;;;5052388;28;20477;-74
2022/11/24 12:42:25;;;;;;;6.70;2.23;;;10.20;99.90;;;;;;5072143;28;20457;-74
2022/11/24 12:45:13;;;;;;;8.93;2.40;;;10.20;99.90;;;;;;5055918;28;20418;-74
2022/11/24 12:47:45;;;;;;;9.13;2.30;;;10.20;99.90;;;;;;5072322;28;20525;-73
2022/11/24 12:50:31;;;;;;;12.77;2.47;;;10.20;99.90;;;;;;5074457;28;20445;-73
2022/11/24 12:53:25;;;;;;;11.87;2.60;;;10.20;99.90;;;;;;5074361;28;20409;-73
2022/11/24 12:56:04;;;;;;;8.40;2.47;;;10.20;99.90;;;;;;5072382;28;20449;-72
2022/11/24 12:58:57;;;;;;;7.97;2.40;;;10.20;99.90;;;;;;5056707;28;20922;-72
2022/11/24 13:01:35;;;;;;;7.83;2.07;;;10.20;99.90;;;;;;5074103;28;20443;-72
2022/11/24 13:04:44;;;;;;;8.90;2.80;;;10.20;99.90;;;;;;5074230;28;20976;-72
2022/11/24 13:07:21;;;;;;;8.13;2.00;;;10.30;99.90;;;;;;5070100;28;20477;-72
2022/11/24 13:10:35;;;;;;;12.17;2.57;;;10.30;99.90;;;;;;5056288;28;20818;-72
2022/11/24 13:13:02;;;;;;;8.75;2.50;;;10.30;99.90;;;;;;5067192;28;20835;-71
2022/11/24 13:15:50;;;;;;;11.87;2.80;;;10.30;99.90;;;;;;5071599;28;20255;-72
2022/11/24 13:18:45;;;;;;;14.80;2.70;;;10.40;99.90;;;;;;5065365;28;20445;-72
2022/11/24 13:21:37;;;;;;;9.33;3.10;;;10.60;99.90;;;;;;5071030;28;20438;-71
2022/11/24 13:24:19;;;;;;;10.47;3.13;;;10.70;99.90;;;;;;5066446;28;20836;-71
2022/11/24 13:26:54;;;;;;;8.27;2.63;;;10.80;99.90;;;;;;5070108;28;21017;-71
2022/11/24 13:29:29;;;;;;;11.90;3.17;;;10.90;99.90;;;;;;5071188;28;20427;-71
2022/11/24 13:32:18;;;;;;;11.70;2.53;;;10.90;99.90;;;;;;5071746;28;20429;-71
2022/11/24 13:34:48;;;;;;;11.27;2.90;;;10.80;99.90;;;;;;5072555;28;20650;-71
2022/11/24 13:37:27;;;;;;;8.23;2.80;;;10.80;99.90;;;;;;5050758;28;20459;-72
2022/11/24 13:39:58;;;;;;;7.23;3.30;;;10.80;99.90;;;;;;5052985;28;20462;-71
2022/11/24 13:42:28;;;;;;;8.17;2.40;;;10.80;99.90;;;;;;5071910;28;20870;-71
2022/11/24 13:45:01;;;;;;;14.70;3.30;;;10.80;99.90;;;;;;5070711;28;20797;-71
2022/11/24 13:47:32;;;;;;;8.97;2.10;;;10.80;99.90;;;;;;5065511;28;20442;-71
2022/11/24 13:50:02;;;;;;;9.40;2.73;;;10.80;99.90;;;;;;5069024;28;20525;-71
2022/11/24 13:52:52;;;;;;;10.97;2.90;;;10.70;99.90;;;;;;5070795;28;20765;-71
2022/11/24 13:55:21;;;;;;;5.53;2.30;;;10.70;99.90;;;;;;5055617;28;20434;-72
2022/11/24 13:57:54;;;;;;;10.50;2.27;;;10.70;99.90;;;;;;5054140;28;20421;-71
2022/11/24 14:00:37;;;;;;;12.50;2.93;;;10.70;99.90;;;;;;5070784;28;20481;-72
2022/11/24 14:03:05;;;;;;;6.13;1.77;;;10.70;99.90;;;;;;5053865;28;20427;-71
2022/11/24 14:05:49;;;;;;;9.90;2.67;;;10.70;99.90;;;;;;5024721;28;20429;-71
2022/11/24 14:08:25;;;;;;;6.20;1.97;;;10.70;99.90;;;;;;5047168;28;20540;-71
2022/11/24 14:10:56;;;;;;;11.23;2.53;;;10.70;99.90;;;;;;5069018;28;20803;-71
2022/11/24 14:13:22;;;;;;;11.57;2.13;;;10.70;99.90;;;;;;5070377;28;20858;-71
2022/11/24 14:16:08;;;;;;;7.10;2.23;;;10.70;99.90;;;;;;5063474;28;20439;-71
2022/11/24 14:18:44;;;;;;;9.73;2.00;;;10.70;99.90;;;;;;5049727;28;20458;-71
2022/11/24 14:21:19;;;;;;;4.60;2.17;;;10.70;99.90;;;;;;5070415;28;20966;-71
2022/11/24 14:24:00;;;;;;;7.77;2.60;;;10.70;99.90;;;;;;5070559;28;20453;-72
2022/11/24 14:26:34;;;;;;;6.93;2.60;;;10.70;99.90;;;;;;5052117;28;20470;-72
2022/11/24 14:29:16;;;;;;;9.20;2.70;;;10.70;99.90;;;;;;5069913;28;20505;-72
2022/11/24 14:31:52;;;;;;;10.73;3.03;;;10.70;99.90;;;;;;5053809;28;20776;-71
2022/11/24 14:34:22;;;;;;;4.40;2.43;;;10.70;99.90;;;;;;5071185;28;20933;-71
2022/11/24 14:36:53;;;;;;;9.93;2.17;;;10.70;99.90;;;;;;5074199;28;20414;-71
2022/11/24 14:39:26;;;;;;;7.90;2.20;;;10.70;99.90;;;;;;5075161;28;20414;-72
2022/11/24 14:41:59;;;;;;;12.83;2.43;;;10.70;99.90;;;;;;5057611;28;20425;-71
2022/11/24 14:45:02;;;;;;;7.17;2.80;;;10.70;99.90;;;;;;5075515;28;20497;-72
2022/11/24 14:47:35;;;;;;;17.10;3.03;;;10.70;99.90;;;;;;5074171;28;20797;-71
2022/11/24 14:50:17;;;;;;;8.20;2.27;;;10.70;99.90;;;;;;5057605;28;20480;-71
2022/11/24 14:53:09;;;;;;;9.30;2.50;;;10.60;99.90;;;;;;5073795;28;20414;-71
2022/11/24 14:55:38;;;;;;;11.10;2.80;;;10.60;99.90;;;;;;5057424;28;20422;-71
2022/11/24 14:58:39;;;;;;;11.43;2.47;;;10.60;99.90;;;;;;5075251;28;20406;-71
2022/11/24 15:01:20;;;;;;;12.37;3.60;;;10.60;99.90;;;;;;5053489;28;20445;-71
2022/11/24 15:04:22;;;;;;;6.30;2.20;;;10.60;99.90;;;;;;5055779;28;20445;-72
2022/11/24 15:07:14;;;;;;;8.17;3.07;;;10.60;99.90;;;;;;5049027;28;20474;-72
2022/11/24 15:09:46;;;;;;;6.03;2.30;;;10.50;99.90;;;;;;5073296;28;20452;-71
2022/11/24 15:12:36;;;;;;;10.70;2.60;;;10.50;99.90;;;;;;5056834;28;20801;-72
2022/11/24 15:15:21;;;;;;;9.73;2.60;;;10.50;99.90;;;;;;5072981;28;20430;-71
2022/11/24 15:17:53;;;;;;;10.67;2.80;;;10.50;99.90;;;;;;5057134;28;20758;-72
2022/11/24 15:20:44;;;;;;;5.90;2.40;;;10.50;99.90;;;;;;5074699;28;20813;-72
2022/11/24 15:23:29;;;;;;;12.53;2.60;;;10.50;99.90;;;;;;5057051;28;20952;-71
2022/11/24 15:26:01;;;;;;;6.77;2.60;;;10.50;99.90;;;;;;5073324;28;20449;-71
2022/11/24 15:28:29;;;;;;;9.00;2.33;;;10.50;99.90;;;;;;5074921;28;20426;-71
2022/11/24 15:31:00;;;;;;;6.63;2.03;;;10.50;99.90;;;;;;5074227;28;20446;-71
2022/11/24 15:33:26;;;;;;;10.20;2.40;;;10.50;99.90;;;;;;5056204;28;20832;-72
2022/11/24 15:35:52;;;;;;;11.33;2.60;;;10.50;99.90;;;;;;5056835;28;20818;-72
2022/11/24 15:38:24;;;;;;;10.50;2.57;;;10.50;99.90;;;;;;5073112;28;20446;-74